CAMANCHE RESERVOIR (CMN)

Elevation: 236' · MOKELUMNE R basin · Operator: East Bay Municipal Utility District

Provisional data, subject to change.
Query executed Friday at 4:13:46   clock

Select a sensor type for a plot of data.
Note: Reservoir Flows are daily averages.

Earlier

Date RES ELE    STORAGE    RES CHG    TOC STO    ABV TOC    OUTFLOW    INFLOW   
 FEET   AF   AF   AF   AF   CFS   CFS  
07/01/2015 174.50 90010 961 374936 -284926 273 786
07/02/2015 174.80 90920 937 375840 -- 250 779
07/03/2015 174.63 90400 -535 375299 -- 251 11
07/04/2015 174.46 89890 -514 375096 -- 250 11
07/05/2015 174.29 89370 -494 375055 -285685 250 11
07/06/2015 174.10 88800 -505 374983 -286183 250 11
07/07/2015 174.27 89310 534 376102 -286792 250 521
07/08/2015 174.41 89740 456 377227 -287487 250 521
07/09/2015 174.18 89040 502 378644 -288224 263 11
07/10/2015 174.41 89732 692 378708 -- 262 0
07/11/2015 174.21 89131 -601 379046 -- 271 0
07/12/2015 174.04 88636 -495 398125 -290755 270 0
07/13/2015 173.87 88116 -520 398484 -291633 270 0
07/14/2015 173.69 87588 -528 398862 -292552 270 0
07/15/2015 173.51 87078 -510 398444 -311384 270 0
07/16/2015 173.32 86514 -564 398046 -311516 270 0
07/17/2015 173.14 85983 -531 398370 -- 269 0
07/18/2015 172.95 85420 -515 399280 -- 270 11
07/19/2015 172.80 84990 -482 400239 -315249 269 11
07/20/2015 172.60 84410 -500 400988 -316578 263 11
07/21/2015 172.42 83900 -513 401853 -317953 254 11
07/22/2015 172.75 84840 999 404257 -319417 254 784
07/23/2015 173.08 85800 1003 406672 -320872 255 783
07/24/2015 173.38 86670 994 409087 -- 252 788
07/25/2015 173.23 86230 -535 409798 -- 245 11
07/26/2015 173.05 85710 -506 410539 -324829 245 11
07/27/2015 172.88 85220 -451 410973 -325753 241 11
07/28/2015 172.73 84790 -402 417100 -332310 235 11
07/29/2015 172.56 84300 -443 417100 -332800 236 11
07/30/2015 172.40 83847 -453 -- -- 237 0
07/31/2015 -- -- -- -- -- -- --

Later | Latest

Warning! This data is preliminary and subject to revision.

Show CMN Map | Plot CMN Data | 1 Month CMN Data | Real-Time CMN Data | CMN Info